Time;durP1;ratioP1;P1;durP2;ratioP2;P2;SDS_P1;SDS_P2;PMS_P1;PMS_P2;Temp;Humidity;BMP_temperature;BMP_pressure;BME280_temperature;BME280_humidity;BME280_pressure;Samples;Min_cycle;Max_cycle;Signal;HPM_P1;HPM_P2
2023/12/04 00:01:14;;;;;;;10.57;7.37;;;;;;;-144.30;92.58;86555.59;5090650;28;20199;-62
2023/12/04 00:03:41;;;;;;;11.07;6.80;;;;;;;-144.30;91.32;86603.31;5090835;28;20506;-60
2023/12/04 00:06:09;;;;;;;10.13;7.47;;;;;;;-144.30;91.50;86579.47;5090187;28;20264;-60
2023/12/04 00:08:37;;;;;;;8.03;6.63;;;;;;;-144.30;91.33;86583.44;5090399;28;20195;-63
2023/12/04 00:11:05;;;;;;;8.53;7.27;;;;;;;-144.30;91.52;86587.41;5090499;28;20225;-58
2023/12/04 00:13:32;;;;;;;8.63;7.13;;;;;;;-144.30;91.33;86619.22;5090266;28;20227;-63
2023/12/04 00:15:59;;;;;;;8.33;6.87;;;;;;;-144.30;89.66;86601.34;5090231;28;20374;-62
2023/12/04 00:18:27;;;;;;;9.60;7.10;;;;;;;-144.30;89.85;86593.38;5090376;28;20297;-62
2023/12/04 00:20:54;;;;;;;11.93;8.20;;;;;;;-144.30;90.23;86609.28;5090523;28;20191;-62
2023/12/04 00:23:21;;;;;;;10.20;7.70;;;;;;;-144.30;90.09;86569.50;5090267;28;20198;-59
2023/12/04 00:25:48;;;;;;;11.23;8.47;;;;;;;-144.30;90.90;86609.28;5089508;28;20696;-60
2023/12/04 00:28:15;;;;;;;10.87;7.43;;;;;;;-144.30;90.17;86595.38;5090301;28;20205;-60
2023/12/04 00:30:42;;;;;;;11.53;7.83;;;;;;;-144.30;89.70;86601.34;5090202;28;20739;-58
2023/12/04 00:33:09;;;;;;;10.43;7.50;;;;;;;-144.30;90.01;86597.34;5090196;28;20690;-59
2023/12/04 00:35:37;;;;;;;9.00;7.00;;;;;;;-144.30;90.06;86601.34;5090001;28;20221;-62
2023/12/04 00:38:04;;;;;;;7.67;6.03;;;;;;;-144.30;90.01;86589.41;5089984;28;20693;-58
2023/12/04 00:40:31;;;;;;;10.93;7.70;;;;;;;-144.30;89.82;86478.03;5089647;28;20318;-59
2023/12/04 00:42:58;;;;;;;11.40;7.40;;;;;;;-144.30;89.51;86577.47;5090121;28;20682;-59
2023/12/04 00:45:25;;;;;;;10.43;6.93;;;;;;;-144.30;89.13;86621.22;5089898;28;20623;-62
2023/12/04 00:47:52;;;;;;;8.30;6.60;;;;;;;-144.30;88.94;86595.38;5090250;28;20643;-62
2023/12/04 00:50:18;;;;;;;8.93;7.20;;;;;;;-144.30;89.05;86613.28;5089948;28;20292;-58
2023/12/04 00:52:47;;;;;;;8.07;7.00;;;;;;;-144.30;88.03;86625.19;5089976;28;20195;-63
2023/12/04 00:55:14;;;;;;;9.63;6.77;;;;;;;-144.30;87.87;86605.31;5089645;28;20229;-62
2023/12/04 00:57:41;;;;;;;9.03;6.30;;;;;;;-144.30;87.93;86633.16;5089668;28;20191;-58
2023/12/04 01:00:09;;;;;;;8.67;6.30;;;;;;;-144.30;87.29;86581.44;5089756;28;20478;-57
2023/12/04 01:02:36;;;;;;;8.07;6.60;;;;;;;-144.30;87.85;86625.19;5089691;28;20278;-61
2023/12/04 01:05:03;;;;;;;9.13;7.13;;;;;;;-144.30;88.26;86641.09;5089455;28;20238;-61
2023/12/04 01:07:30;;;;;;;9.37;7.13;;;;;;;-144.30;89.40;86637.13;5089556;28;20268;-62
2023/12/04 01:09:59;;;;;;;10.73;6.67;;;;;;;-144.30;88.63;86653.03;5089394;28;20203;-62
2023/12/04 01:12:26;;;;;;;9.43;7.10;;;;;;;-144.30;88.79;86645.09;5089491;28;20286;-61
2023/12/04 01:14:53;;;;;;;9.07;7.07;;;;;;;-144.30;89.01;86627.19;5089433;28;20237;-62
2023/12/04 01:17:20;;;;;;;7.03;6.33;;;;;;;-144.30;87.96;86601.34;5089144;28;20195;-62
2023/12/04 01:19:47;;;;;;;10.17;6.70;;;;;;;-144.30;87.49;86607.31;5089560;28;20203;-62
2023/12/04 01:22:14;;;;;;;9.13;7.17;;;;;;;-144.30;87.95;86639.13;5089300;28;20615;-61
2023/12/04 01:24:41;;;;;;;9.37;6.87;;;;;;;-144.30;87.51;86629.19;5089264;28;20200;-63
2023/12/04 01:27:10;;;;;;;8.60;6.20;;;;;;;-144.30;87.07;86659.00;5089258;28;20202;-62
2023/12/04 01:29:37;;;;;;;7.23;6.10;;;;;;;-144.30;86.54;86607.31;5089085;28;20195;-58
2023/12/04 01:32:05;;;;;;;7.43;6.00;;;;;;;-144.30;86.99;86639.13;5089381;28;20196;-61
2023/12/04 01:34:32;;;;;;;6.73;5.73;;;;;;;-144.30;87.46;86599.34;5089508;28;20221;-61
2023/12/04 01:36:59;;;;;;;7.40;5.97;;;;;;;-144.30;87.45;86641.09;5088933;28;20682;-62
2023/12/04 01:39:25;;;;;;;6.47;5.80;;;;;;;-144.30;87.38;86609.28;5088802;28;20203;-58
2023/12/04 01:41:52;;;;;;;8.87;6.13;;;;;;;-144.30;88.26;86581.44;5088944;28;20744;-59
2023/12/04 01:44:22;;;;;;;6.83;5.53;;;;;;;-144.30;87.87;86627.19;5088999;28;20199;-57
2023/12/04 01:46:49;;;;;;;6.53;5.83;;;;;;;-144.30;86.31;86619.22;5089194;28;20234;-59
2023/12/04 01:49:16;;;;;;;8.30;6.33;;;;;;;-144.30;85.83;86633.16;5089104;28;20670;-59
2023/12/04 01:51:44;;;;;;;7.40;6.00;;;;;;;-144.30;85.59;86625.19;5089041;28;20619;-62
2023/12/04 01:54:11;;;;;;;7.27;5.90;;;;;;;-144.30;85.37;86649.06;5088877;28;20223;-61
2023/12/04 01:56:38;;;;;;;11.00;6.50;;;;;;;-144.30;85.91;86657.03;5088923;28;20290;-62
2023/12/04 01:59:05;;;;;;;9.03;6.37;;;;;;;-144.30;86.14;86603.31;5088841;28;20199;-63
2023/12/04 02:01:34;;;;;;;5.60;5.10;;;;;;;-144.30;86.44;86655.03;5089020;28;20671;-62
2023/12/04 02:04:02;;;;;;;6.47;5.20;;;;;;;-144.30;85.97;86573.50;5088927;28;20302;-62
2023/12/04 02:06:29;;;;;;;6.80;5.37;;;;;;;-144.30;86.32;86633.16;5088516;28;20202;-60
2023/12/04 02:08:57;;;;;;;8.47;5.93;;;;;;;-144.30;86.56;86627.19;5089052;28;20667;-61
2023/12/04 02:11:24;;;;;;;5.80;5.30;;;;;;;-144.30;86.64;86637.13;5088487;28;20202;-59
2023/12/04 02:13:51;;;;;;;8.13;5.63;;;;;;;-144.30;86.25;86607.31;5088450;28;20713;-61
2023/12/04 02:16:20;;;;;;;10.50;5.70;;;;;;;-144.30;86.32;86637.13;5088437;28;20204;-61
2023/12/04 02:18:49;;;;;;;7.50;5.50;;;;;;;-144.30;86.46;86603.31;5088724;28;20191;-61
2023/12/04 02:21:16;;;;;;;8.07;5.43;;;;;;;-144.30;85.76;86641.09;5088579;28;20195;-58
2023/12/04 02:23:43;;;;;;;8.77;6.00;;;;;;;-144.30;85.61;86623.22;5088786;28;20192;-59
2023/12/04 02:26:16;;;;;;;6.47;5.30;;;;;;;-144.30;84.76;86611.28;5088636;28;20209;-59
2023/12/04 02:28:51;;;;;;;5.63;5.10;;;;;;;-144.30;85.30;86645.09;5088635;28;20195;-59
2023/12/04 02:31:20;;;;;;;7.53;5.60;;;;;;;-144.30;85.48;86593.38;5088478;28;20209;-62
2023/12/04 02:33:49;;;;;;;5.73;4.93;;;;;;;-144.30;84.99;86647.06;5088790;28;20709;-62
2023/12/04 02:36:16;;;;;;;5.40;4.90;;;;;;;-144.30;85.98;86623.22;5088586;28;20686;-62
2023/12/04 02:38:43;;;;;;;6.07;4.60;;;;;;;-144.30;84.14;86637.13;5088656;28;20191;-59
2023/12/04 02:41:12;;;;;;;7.00;5.13;;;;;;;-144.30;83.73;86613.28;5088419;28;20237;-59
2023/12/04 02:43:39;;;;;;;5.40;4.90;;;;;;;-144.30;82.44;86591.38;5088455;28;20202;-59
2023/12/04 02:46:06;;;;;;;4.90;4.40;;;;;;;-144.30;81.47;86410.44;5088324;28;20201;-59
2023/12/04 02:48:33;;;;;;;6.20;4.33;;;;;;;-144.30;81.22;86611.28;5090339;28;20286;-58
2023/12/04 02:51:00;;;;;;;6.40;4.80;;;;;;;-144.30;81.52;86611.28;5091889;28;20218;-61
2023/12/04 02:53:27;;;;;;;5.73;4.40;;;;;;;-144.30;81.40;86839.97;5092088;28;20199;-61
2023/12/04 02:55:54;;;;;;;5.37;4.70;;;;;;;-144.30;80.56;86629.19;5092166;28;20215;-62
2023/12/04 02:58:22;;;;;;;5.77;4.53;;;;;;;-144.30;80.34;86653.03;5091859;28;20199;-62
2023/12/04 03:00:49;;;;;;;4.83;4.17;;;;;;;-144.30;80.60;86607.31;5091997;28;20712;-62
2023/12/04 03:03:16;;;;;;;4.57;4.13;;;;;;;-144.30;80.00;86607.31;5092098;28;20203;-62
2023/12/04 03:05:43;;;;;;;4.83;4.33;;;;;;;-144.30;79.78;86661.00;5091982;28;20247;-58
2023/12/04 03:08:10;;;;;;;5.43;4.93;;;;;;;-144.30;81.52;86637.13;5091894;28;20199;-61
2023/12/04 03:10:37;;;;;;;5.27;4.83;;;;;;;-144.30;80.11;86643.09;5091758;28;20202;-62
2023/12/04 03:13:04;;;;;;;6.60;4.90;;;;;;;-144.30;80.34;86615.25;5091542;28;20286;-59
2023/12/04 03:15:32;;;;;;;6.27;5.13;;;;;;;-144.30;80.07;86649.06;5091574;28;20229;-58
2023/12/04 03:18:01;;;;;;;8.03;5.53;;;;;;;-144.30;81.08;86647.06;5091520;28;20209;-58
2023/12/04 03:20:28;;;;;;;6.17;5.57;;;;;;;-144.30;81.19;86682.88;5091760;28;20197;-58
2023/12/04 03:22:55;;;;;;;5.33;4.83;;;;;;;-144.30;80.89;86645.09;5091565;28;20210;-59
2023/12/04 03:25:22;;;;;;;6.63;5.40;;;;;;;-144.30;82.49;86637.13;5091255;28;20578;-59
2023/12/04 03:27:49;;;;;;;6.13;5.30;;;;;;;-144.30;81.72;86653.03;5091425;28;20207;-59
2023/12/04 03:30:16;;;;;;;6.90;5.27;;;;;;;-144.30;81.48;86645.09;5091107;28;20206;-60
2023/12/04 03:32:44;;;;;;;7.40;5.67;;;;;;;-144.30;82.47;86627.19;5091145;28;20199;-59
2023/12/04 03:35:11;;;;;;;7.27;4.87;;;;;;;-144.30;81.18;86655.03;5091113;28;20310;-60
2023/12/04 03:37:38;;;;;;;6.10;5.07;;;;;;;-144.30;81.38;86645.09;5091348;28;20216;-59
2023/12/04 03:40:06;;;;;;;7.57;4.97;;;;;;;-144.30;81.51;86599.34;5090949;28;20272;-61
2023/12/04 03:42:33;;;;;;;5.30;4.80;;;;;;;-144.30;80.75;86637.13;5091036;28;20199;-62
2023/12/04 03:45:00;;;;;;;4.87;4.37;;;;;;;-144.30;79.61;86625.19;5091024;28;20198;-62
2023/12/04 03:47:27;;;;;;;6.77;4.87;;;;;;;-144.30;79.67;86619.22;5091271;28;20195;-58
2023/12/04 03:49:55;;;;;;;7.87;5.10;;;;;;;-144.30;79.59;86609.28;5090732;28;20258;-62
2023/12/04 03:52:22;;;;;;;5.03;4.53;;;;;;;-144.30;79.26;86625.19;5090867;28;20760;-58
2023/12/04 03:54:49;;;;;;;5.13;4.63;;;;;;;-144.30;79.44;86649.06;5090707;28;20223;-62
2023/12/04 03:57:16;;;;;;;5.70;4.87;;;;;;;-144.30;78.56;86639.13;5090893;28;20191;-57
2023/12/04 03:59:44;;;;;;;7.50;5.10;;;;;;;-144.30;78.78;86625.19;5090991;28;20675;-58
2023/12/04 04:02:11;;;;;;;5.53;5.03;;;;;;;-144.30;78.45;86633.16;5090735;28;20199;-58
2023/12/04 04:04:38;;;;;;;5.60;4.63;;;;;;;-144.30;78.91;86633.16;5090708;28;20199;-58
2023/12/04 04:07:06;;;;;;;6.10;4.40;;;;;;;-144.30;78.57;86639.13;5090507;28;20698;-59
2023/12/04 04:09:33;;;;;;;4.83;4.17;;;;;;;-144.30;78.33;86627.19;5090481;28;20195;-58
2023/12/04 04:12:00;;;;;;;6.90;4.60;;;;;;;-144.30;77.69;86647.06;5090677;28;20726;-58
2023/12/04 04:14:27;;;;;;;4.73;4.20;;;;;;;-144.30;77.49;86664.97;5090588;28;20610;-58
2023/12/04 04:16:54;;;;;;;4.90;4.40;;;;;;;-144.30;76.89;86641.09;5090577;28;20192;-61
2023/12/04 04:19:21;;;;;;;9.00;4.97;;;;;;;-144.30;77.02;86625.19;5090300;28;20203;-61
2023/12/04 04:21:48;;;;;;;5.50;4.17;;;;;;;-144.30;76.63;86639.13;5090371;28;20679;-61
2023/12/04 04:24:16;;;;;;;5.07;4.57;;;;;;;-144.30;76.72;86661.00;5090117;28;20199;-61
2023/12/04 04:26:43;;;;;;;5.30;4.80;;;;;;;-144.30;77.06;86657.03;5089982;28;20233;-61
2023/12/04 04:29:10;;;;;;;6.50;5.03;;;;;;;-144.30;76.82;86629.19;5091351;28;20687;-61
2023/12/04 04:31:37;;;;;;;6.77;5.03;;;;;;;-144.30;77.85;86674.91;5109134;28;20277;-61
2023/12/04 04:34:04;;;;;;;5.80;5.10;;;;;;;-144.30;77.50;86625.19;5109614;28;20707;-60
2023/12/04 04:36:31;;;;;;;7.20;5.67;;;;;;;-144.30;76.43;86623.22;5109508;28;20190;-60
2023/12/04 04:38:58;;;;;;;8.40;5.23;;;;;;;-144.30;76.83;86641.09;5109003;28;20277;-60
2023/12/04 04:41:26;;;;;;;6.40;5.13;;;;;;;-144.30;76.44;86680.88;5109179;28;20707;-61
2023/12/04 04:43:54;;;;;;;5.93;4.93;;;;;;;-144.30;77.40;86668.94;5108824;28;20226;-62
2023/12/04 04:46:21;;;;;;;8.17;5.53;;;;;;;-144.30;76.58;86664.97;5108900;28;20202;-59
2023/12/04 04:48:48;;;;;;;6.13;5.47;;;;;;;-144.30;76.96;86664.97;5108548;28;20200;-58
2023/12/04 04:51:15;;;;;;;7.13;5.83;;;;;;;-144.30;76.00;86682.88;5109850;28;20671;-61
2023/12/04 04:53:42;;;;;;;7.27;5.40;;;;;;;-144.30;75.58;86647.06;5109586;28;20747;-62
2023/12/04 04:56:10;;;;;;;8.83;6.77;;;;;;;-144.30;76.39;86682.88;5109695;28;20214;-62
2023/12/04 04:58:38;;;;;;;10.67;6.77;;;;;;;-144.30;76.25;86670.94;5109600;28;20745;-58
2023/12/04 05:01:05;;;;;;;6.73;5.37;;;;;;;-144.30;75.30;86676.91;5107396;28;20202;-57
2023/12/04 05:03:32;;;;;;;8.47;5.97;;;;;;;-144.30;75.03;86680.88;5110182;28;20217;-60
2023/12/04 05:05:59;;;;;;;9.63;6.13;;;;;;;-144.30;75.35;86692.81;5110140;28;20281;-57
2023/12/04 05:08:26;;;;;;;7.13;6.10;;;;;;;-144.30;75.85;86661.00;5110366;28;20205;-56
2023/12/04 05:10:53;;;;;;;8.43;6.50;;;;;;;-144.30;75.20;86674.91;5104637;28;20257;-61
2023/12/04 05:13:20;;;;;;;7.07;6.27;;;;;;;-144.30;78.68;86680.88;5109580;28;20668;-60
2023/12/04 05:15:48;;;;;;;8.77;6.60;;;;;;;-144.30;76.46;86672.94;5109307;28;20219;-55
2023/12/04 05:18:15;;;;;;;9.63;6.67;;;;;;;-144.30;76.25;86649.06;5109309;28;20290;-56
2023/12/04 05:20:42;;;;;;;9.10;6.13;;;;;;;-144.30;75.76;86657.03;5111333;27;20699;-56
2023/12/04 05:23:09;;;;;;;11.87;7.40;;;;;;;-144.30;76.06;86684.84;5112254;27;20725;-61
2023/12/04 05:25:36;;;;;;;8.30;6.97;;;;;;;-144.30;75.50;86661.00;5108872;28;20272;-57
2023/12/04 05:28:03;;;;;;;8.30;6.37;;;;;;;-144.30;75.03;86668.94;5110069;28;20353;-63
2023/12/04 05:30:30;;;;;;;9.50;7.10;;;;;;;-144.30;74.52;86629.19;5104287;28;20211;-65
2023/12/04 05:32:58;;;;;;;11.07;7.60;;;;;;;-144.30;75.39;86676.91;5089148;28;20203;-63
2023/12/04 05:35:25;;;;;;;8.47;6.53;;;;;;;-144.30;75.11;86680.88;5088676;28;20225;-58
2023/12/04 05:37:52;;;;;;;7.83;6.60;;;;;;;-144.30;75.28;86653.03;5096668;28;20285;-63
2023/12/04 05:40:19;;;;;;;10.23;6.83;;;;;;;-144.30;74.37;86678.88;5105641;28;20230;-59
2023/12/04 05:42:46;;;;;;;8.73;6.87;;;;;;;-144.30;73.98;86684.84;5105537;28;20289;-57
2023/12/04 05:45:13;;;;;;;5.93;5.40;;;;;;;-144.30;74.03;86670.94;5108191;28;20286;-58
2023/12/04 05:47:40;;;;;;;6.77;6.07;;;;;;;-144.30;74.07;86649.06;5109377;28;20277;-59
2023/12/04 05:50:09;;;;;;;8.17;6.37;;;;;;;-144.30;74.35;86645.09;5109422;28;20898;-63
2023/12/04 05:52:36;;;;;;;9.73;7.03;;;;;;;-144.30;74.37;86639.13;5109005;28;20194;-62
2023/12/04 05:55:04;;;;;;;8.37;6.27;;;;;;;-144.30;74.44;86668.94;5108529;28;20780;-59
2023/12/04 05:57:30;;;;;;;8.73;6.30;;;;;;;-144.30;74.37;86676.91;5108342;28;20203;-57
2023/12/04 05:59:57;;;;;;;7.53;6.60;;;;;;;-144.30;74.16;86676.91;5109099;28;20222;-62
2023/12/04 06:02:24;;;;;;;6.67;5.97;;;;;;;-144.30;73.22;86657.03;5109017;28;20310;-61
2023/12/04 06:04:51;;;;;;;7.23;6.23;;;;;;;-144.30;72.25;86668.94;5109378;28;20197;-62
2023/12/04 06:07:20;;;;;;;11.33;5.70;;;;;;;-144.30;71.33;86672.94;5109014;28;20198;-61
2023/12/04 06:09:46;;;;;;;5.80;5.20;;;;;;;-144.30;70.54;86694.81;5109349;28;20295;-61
2023/12/04 06:12:13;;;;;;;6.03;5.43;;;;;;;-144.30;70.96;86647.06;5108418;28;20195;-57
2023/12/04 06:14:40;;;;;;;7.93;5.70;;;;;;;-144.30;71.43;86657.03;5109322;28;20199;-58
2023/12/04 06:17:07;;;;;;;7.07;5.77;;;;;;;-144.30;71.04;86657.03;5109059;28;20285;-62
2023/12/04 06:19:34;;;;;;;8.00;5.80;;;;;;;-144.30;72.38;86617.25;5108559;28;20209;-62
2023/12/04 06:22:01;;;;;;;7.73;5.87;;;;;;;-144.30;72.20;86696.78;5108525;28;20474;-60
2023/12/04 06:24:30;;;;;;;6.70;5.87;;;;;;;-144.30;72.46;86655.03;5111463;28;20734;-58
2023/12/04 06:26:58;;;;;;;7.87;5.57;;;;;;;-144.30;72.61;86676.91;5113274;28;20196;-58
2023/12/04 06:29:25;;;;;;;6.70;5.73;;;;;;;-144.30;72.50;86627.19;5112810;28;20198;-61
2023/12/04 06:31:53;;;;;;;11.67;6.67;;;;;;;-144.30;72.55;86653.03;5113136;28;20688;-60
2023/12/04 06:34:20;;;;;;;8.30;6.23;;;;;;;-144.30;72.62;86645.09;5113016;28;20842;-58
2023/12/04 06:36:48;;;;;;;6.60;5.27;;;;;;;-144.30;72.83;86678.88;5112772;28;20260;-57
2023/12/04 06:39:17;;;;;;;7.73;6.03;;;;;;;-144.30;71.84;86641.09;5112679;28;20237;-61
2023/12/04 06:41:48;;;;;;;10.47;5.93;;;;;;;-144.30;71.51;86655.03;5112514;28;20313;-61
2023/12/04 06:44:15;;;;;;;7.17;5.63;;;;;;;-144.30;70.69;86653.03;5112490;28;20760;-58
2023/12/04 06:46:45;;;;;;;8.17;6.13;;;;;;;-144.30;71.08;86637.13;5112528;28;20191;-61
2023/12/04 06:49:15;;;;;;;6.53;5.83;;;;;;;-144.30;71.04;86623.22;5112135;28;20201;-60
2023/12/04 06:51:42;;;;;;;6.87;5.87;;;;;;;-144.30;70.66;86629.19;5112442;28;20196;-61
2023/12/04 06:54:09;;;;;;;6.83;5.53;;;;;;;-144.30;70.58;86607.31;5112401;28;20190;-61
2023/12/04 06:56:36;;;;;;;9.77;6.17;;;;;;;-144.30;70.60;86645.09;5112495;28;20218;-61
2023/12/04 06:59:04;;;;;;;7.53;5.70;;;;;;;-144.30;69.81;87158.19;5112406;28;20216;-61
2023/12/04 07:01:31;;;;;;;8.40;5.97;;;;;;;-144.30;70.14;86621.22;5112535;28;20669;-61
2023/12/04 07:03:58;;;;;;;6.97;5.60;;;;;;;-144.30;70.48;86613.28;5111699;28;20201;-61
2023/12/04 07:06:25;;;;;;;7.67;5.93;;;;;;;-144.30;69.99;86629.19;5106574;28;20199;-60
2023/12/04 07:08:52;;;;;;;7.70;6.43;;;;;;;-144.30;70.17;86649.06;5112444;28;20608;-58
2023/12/04 07:11:19;;;;;;;7.70;5.73;;;;;;;-144.30;69.84;86645.09;5112502;28;20222;-58
2023/12/04 07:13:46;;;;;;;7.67;6.47;;;;;;;-144.30;69.69;86659.00;5112440;28;20682;-57
2023/12/04 07:16:14;;;;;;;10.60;5.80;;;;;;;-144.30;70.00;86637.13;5117250;27;20228;-56
2023/12/04 07:18:41;;;;;;;7.70;5.70;;;;;;;-144.30;70.71;86633.16;5112428;28;20209;-60
2023/12/04 07:21:09;;;;;;;8.60;6.63;;;;;;;-144.30;70.73;86613.28;5111467;28;20287;-60
2023/12/04 07:23:36;;;;;;;7.40;6.10;;;;;;;-144.30;70.75;86631.16;5112507;28;20202;-61
2023/12/04 07:26:06;;;;;;;9.03;5.87;;;;;;;-144.30;69.66;86647.06;5111784;27;20573;-59
2023/12/04 07:28:33;;;;;;;7.13;5.80;;;;;;;-144.30;70.84;86627.19;5111943;28;20199;-57
2023/12/04 07:31:01;;;;;;;7.43;5.87;;;;;;;-144.30;69.46;86599.34;5108808;28;20198;-60
2023/12/04 07:33:29;;;;;;;7.03;5.83;;;;;;;-144.30;70.06;86609.28;5110790;28;20213;-57
2023/12/04 07:35:57;;;;;;;9.60;6.57;;;;;;;-144.30;68.83;86591.38;5110771;28;20222;-57
2023/12/04 07:38:23;;;;;;;7.40;5.73;;;;;;;-144.30;68.69;86601.34;5112046;28;20547;-58
2023/12/04 07:40:50;;;;;;;6.13;5.50;;;;;;;-144.30;68.25;86569.50;5111724;28;20232;-57
2023/12/04 07:43:17;;;;;;;7.33;6.33;;;;;;;-144.30;68.90;86613.28;5111821;28;20191;-61
2023/12/04 07:45:44;;;;;;;5.73;5.13;;;;;;;-144.30;68.62;86559.56;5111647;28;20626;-57
2023/12/04 07:48:11;;;;;;;6.80;5.37;;;;;;;-144.30;67.92;86629.19;5111251;28;20194;-57
2023/12/04 07:50:41;;;;;;;7.67;6.20;;;;;;;-144.30;68.08;86603.31;5111803;28;20259;-57
2023/12/04 07:53:09;;;;;;;9.50;5.80;;;;;;;-144.30;67.56;86589.41;5111376;28;20209;-57
2023/12/04 07:55:36;;;;;;;7.40;5.80;;;;;;;-144.30;67.37;86603.31;5111695;28;20673;-57
2023/12/04 07:58:03;;;;;;;6.60;5.80;;;;;;;-144.30;67.22;86551.63;5111430;28;20201;-57
2023/12/04 08:00:30;;;;;;;7.37;5.70;;;;;;;-144.30;66.91;86633.16;5110839;28;20277;-57
2023/12/04 08:02:57;;;;;;;6.87;5.67;;;;;;;-144.30;67.21;86627.19;5105536;28;20234;-61
2023/12/04 08:05:24;;;;;;;5.73;5.10;;;;;;;-144.30;66.73;86609.28;5110350;28;20277;-61
2023/12/04 08:07:52;;;;;;;10.10;5.53;;;;;;;-144.30;67.29;86625.19;5111040;28;20278;-61
2023/12/04 08:10:19;;;;;;;8.40;5.60;;;;;;;-144.30;67.51;86599.34;5111047;28;20578;-61
2023/12/04 08:12:46;;;;;;;6.47;5.67;;;;;;;-144.30;67.77;86597.34;5108148;28;20244;-61
2023/12/04 08:15:13;;;;;;;5.60;4.97;;;;;;;-144.30;67.18;86581.44;5110657;28;20686;-61
2023/12/04 08:17:41;;;;;;;7.50;5.33;;;;;;;-144.30;67.24;86573.50;5110324;28;20852;-61
2023/12/04 08:20:13;;;;;;;5.37;4.87;;;;;;;-144.30;66.52;86617.25;5107863;28;20190;-59
2023/12/04 08:22:40;;;;;;;6.27;5.27;;;;;;;-144.30;67.46;86569.50;5110788;28;20256;-61
2023/12/04 08:25:09;;;;;;;5.57;5.07;;;;;;;-144.30;66.27;86599.34;5107853;28;20670;-61
2023/12/04 08:27:36;;;;;;;8.60;5.70;;;;;;;-144.30;66.58;86577.47;5099044;27;20730;-58
2023/12/04 08:30:05;;;;;;;7.13;5.50;;;;;;;-144.30;67.11;86557.59;5109166;28;20197;-57
2023/12/04 08:32:32;;;;;;;6.77;5.87;;;;;;;-144.30;67.24;86607.31;5109509;28;20669;-56
2023/12/04 08:34:59;;;;;;;8.43;5.70;;;;;;;-144.30;66.84;86569.50;5110189;28;20272;-57
2023/12/04 08:37:26;;;;;;;8.23;6.00;;;;;;;-144.30;67.50;86557.59;5107717;28;20645;-57
2023/12/04 08:39:54;;;;;;;6.87;5.77;;;;;;;-144.30;66.86;86565.53;5110356;28;20273;-61
2023/12/04 08:42:22;;;;;;;6.27;5.63;;;;;;;-144.30;67.02;86549.63;5110026;28;20190;-61
2023/12/04 08:44:49;;;;;;;8.37;6.07;;;;;;;-144.30;66.24;86521.78;5109392;28;20690;-62
2023/12/04 08:47:16;;;;;;;7.90;5.80;;;;;;;-144.30;66.61;86543.66;5108335;28;20704;-61
2023/12/04 08:49:44;;;;;;;6.97;5.83;;;;;;;-144.30;66.09;86559.56;5110708;28;20229;-57
2023/12/04 08:52:11;;;;;;;8.03;6.10;;;;;;;-144.30;66.73;86507.88;5110551;28;20289;-57
2023/12/04 08:54:41;;;;;;;7.97;5.93;;;;;;;-144.30;65.90;86493.94;5110495;28;20241;-57
2023/12/04 08:57:08;;;;;;;6.83;6.13;;;;;;;-144.30;66.16;86519.81;5110141;28;20230;-58
2023/12/04 08:59:36;;;;;;;6.40;5.60;;;;;;;-144.30;66.61;86557.59;5110167;28;20205;-58
2023/12/04 09:02:04;;;;;;;9.23;7.03;;;;;;;-144.30;67.29;86470.09;5110401;28;20749;-57
2023/12/04 09:04:31;;;;;;;7.60;6.73;;;;;;;-144.30;67.26;86505.88;5110467;28;20195;-57
2023/12/04 09:06:58;;;;;;;6.90;6.00;;;;;;;-144.30;66.71;86523.78;5110558;28;20190;-58
2023/12/04 09:09:25;;;;;;;7.83;6.43;;;;;;;-144.30;66.95;86474.06;5109894;28;20195;-58
2023/12/04 09:11:52;;;;;;;12.00;6.80;;;;;;;-144.30;66.86;86517.81;5110005;28;20199;-57
2023/12/04 09:14:18;;;;;;;11.27;7.10;;;;;;;-144.30;63.48;86521.78;5110333;28;20292;-57
2023/12/04 09:16:47;;;;;;;8.53;7.03;;;;;;;-144.30;63.37;86539.69;5110347;28;20229;-56
2023/12/04 09:19:14;;;;;;;9.47;7.03;;;;;;;-144.30;62.13;86515.81;5108178;28;20289;-61
2023/12/04 09:21:41;;;;;;;7.20;6.43;;;;;;;-144.30;62.28;86491.97;5105290;28;20256;-61
2023/12/04 09:24:08;;;;;;;15.67;6.90;;;;;;;-144.30;62.68;86563.56;5105717;28;20245;-60
2023/12/04 09:26:35;;;;;;;7.23;6.50;;;;;;;-144.30;62.27;86513.84;5107982;28;20186;-58
2023/12/04 09:29:02;;;;;;;7.67;6.87;;;;;;;-144.30;61.68;86474.06;5109534;28;20194;-58
2023/12/04 09:31:29;;;;;;;7.90;6.50;;;;;;;-144.30;62.33;86499.91;5108352;28;20191;-57
2023/12/04 09:33:57;;;;;;;9.33;7.03;;;;;;;-144.30;61.80;86434.28;5108727;28;20191;-61
2023/12/04 09:36:24;;;;;;;12.60;7.03;;;;;;;-144.30;62.32;86478.03;5108950;28;20225;-61
2023/12/04 09:38:51;;;;;;;9.00;6.80;;;;;;;-144.30;61.52;86476.06;5109868;28;20237;-58
2023/12/04 09:41:19;;;;;;;7.33;6.40;;;;;;;-144.30;61.70;86470.09;5109603;28;20631;-57
2023/12/04 09:43:48;;;;;;;8.60;6.47;;;;;;;-144.30;61.46;86450.19;5110222;28;20194;-61
2023/12/04 09:46:17;;;;;;;8.30;6.50;;;;;;;-144.30;60.03;86434.28;5108488;28;20589;-60
2023/12/04 09:48:44;;;;;;;12.77;6.73;;;;;;;-144.30;60.96;86402.47;5109809;28;20271;-62
2023/12/04 09:51:14;;;;;;;8.87;6.53;;;;;;;-144.30;60.43;86386.56;5109663;28;20234;-61
2023/12/04 09:53:41;;;;;;;10.00;6.50;;;;;;;-144.30;60.74;86420.38;5109605;28;20201;-58
2023/12/04 09:56:10;;;;;;;8.07;5.97;;;;;;;-144.30;60.85;86388.56;5109079;28;20197;-58
2023/12/04 09:58:41;;;;;;;7.33;6.53;;;;;;;-144.30;60.86;86440.25;5113955;28;20198;-58
2023/12/04 10:01:08;;;;;;;9.60;6.77;;;;;;;-144.30;60.59;86446.22;5113920;28;20208;-58
2023/12/04 10:03:36;;;;;;;8.43;6.90;;;;;;;-144.30;60.41;86430.31;5113915;28;20194;-58
2023/12/04 10:06:04;;;;;;;7.60;6.27;;;;;;;-144.30;60.26;86418.38;5113877;28;20187;-58
2023/12/04 10:08:32;;;;;;;6.63;6.00;;;;;;;-144.30;60.99;86458.16;5113601;28;20617;-61
2023/12/04 10:11:01;;;;;;;7.60;6.47;;;;;;;-144.30;60.74;86396.50;5113727;28;20283;-61
2023/12/04 10:13:28;;;;;;;6.97;6.27;;;;;;;-144.30;61.04;86398.50;5113650;28;20726;-57
2023/12/04 10:15:54;;;;;;;7.50;6.77;;;;;;;-144.30;60.79;86382.59;5113643;28;20201;-58
2023/12/04 10:18:30;;;;;;;10.37;7.57;;;;;;;-144.30;61.04;86386.56;5113594;28;20301;-60
2023/12/04 10:20:57;;;;;;;9.90;6.57;;;;;;;-144.30;60.68;86394.53;5113817;28;20194;-58
2023/12/04 10:23:38;;;;;;;7.90;6.60;;;;;;;-144.30;60.60;86334.88;5113292;27;20201;-57
2023/12/04 10:26:07;;;;;;;10.80;6.70;;;;;;;-144.30;60.56;86362.72;5113332;28;20190;-57
2023/12/04 10:28:34;;;;;;;7.07;6.37;;;;;;;-144.30;60.51;86366.69;5113536;28;20592;-61
2023/12/04 10:31:01;;;;;;;9.00;7.00;;;;;;;-144.30;60.19;86368.66;5113537;28;20194;-58
2023/12/04 10:33:30;;;;;;;7.63;6.70;;;;;;;-144.30;61.12;86384.59;5113538;28;20198;-58
2023/12/04 10:35:57;;;;;;;7.17;6.47;;;;;;;-144.30;59.74;86354.75;5113385;27;20571;-60
2023/12/04 10:38:26;;;;;;;7.17;6.47;;;;;;;-144.30;59.92;86372.66;5112645;28;20218;-58
2023/12/04 10:40:53;;;;;;;9.07;6.37;;;;;;;-144.30;60.40;86263.28;5113182;28;20226;-58
2023/12/04 10:43:23;;;;;;;7.17;6.27;;;;;;;-144.30;59.65;86318.97;5113242;28;20199;-62
2023/12/04 10:45:51;;;;;;;6.87;6.10;;;;;;;-144.30;60.02;86352.75;5113813;28;20187;-58
2023/12/04 10:48:19;;;;;;;7.27;6.50;;;;;;;-144.30;60.72;86364.69;5112851;27;20209;-58
2023/12/04 10:50:48;;;;;;;10.30;6.47;;;;;;;-144.30;61.05;86384.59;5112969;28;20293;-60
2023/12/04 10:53:16;;;;;;;8.83;6.20;;;;;;;-144.30;59.88;86346.81;5112427;28;20202;-58
2023/12/04 10:55:44;;;;;;;11.43;6.20;;;;;;;-144.30;60.09;86322.94;5112578;28;20199;-60
2023/12/04 10:58:13;;;;;;;8.47;5.47;;;;;;;-144.30;59.66;86354.75;5112703;27;20218;-60
2023/12/04 11:00:45;;;;;;;7.33;5.77;;;;;;;-144.30;59.52;86396.50;5113163;28;20194;-59
2023/12/04 11:03:19;;;;;;;6.43;5.53;;;;;;;-144.30;59.39;86299.06;5112792;28;20225;-62
2023/12/04 11:05:50;;;;;;;7.93;6.60;;;;;;;-144.30;59.72;86299.06;5112994;28;20636;-58
2023/12/04 11:08:18;;;;;;;12.37;6.60;;;;;;;-144.30;60.07;86354.75;5111338;28;20595;-59
2023/12/04 11:10:49;;;;;;;7.60;6.63;;;;;;;-144.30;59.55;86370.66;5112777;28;20333;-59
2023/12/04 11:13:22;;;;;;;7.53;6.70;;;;;;;-144.30;59.84;86376.63;5112971;28;20675;-59
2023/12/04 11:15:53;;;;;;;8.87;6.93;;;;;;;-144.30;59.40;86324.94;5112649;28;20286;-59
2023/12/04 11:18:24;;;;;;;7.93;6.90;;;;;;;-144.30;59.56;86581.44;5112190;28;20230;-60